sensor_id;sensor_type;location;lat;lon;timestamp;temperature;humidity
25128;DHT22;13107;51.304;6.866;2023-04-15T00:03:09;4.80;99.90
25128;DHT22;13107;51.304;6.866;2023-04-15T00:07:12;4.80;99.90
25128;DHT22;13107;51.304;6.866;2023-04-15T00:11:15;4.80;99.90
25128;DHT22;13107;51.304;6.866;2023-04-15T00:15:17;4.80;99.90
25128;DHT22;13107;51.304;6.866;2023-04-15T00:19:19;4.70;99.90
25128;DHT22;13107;51.304;6.866;2023-04-15T00:23:21;4.70;99.90
25128;DHT22;13107;51.304;6.866;2023-04-15T00:27:23;4.70;99.90
25128;DHT22;13107;51.304;6.866;2023-04-15T00:31:25;4.70;99.90
25128;DHT22;13107;51.304;6.866;2023-04-15T00:35:27;4.60;99.90
25128;DHT22;13107;51.304;6.866;2023-04-15T00:39:28;4.60;99.90
25128;DHT22;13107;51.304;6.866;2023-04-15T00:43:30;4.70;99.90
25128;DHT22;13107;51.304;6.866;2023-04-15T00:47:32;4.70;99.90
25128;DHT22;13107;51.304;6.866;2023-04-15T00:51:36;4.70;99.90
25128;DHT22;13107;51.304;6.866;2023-04-15T00:55:38;4.70;99.90
25128;DHT22;13107;51.304;6.866;2023-04-15T00:59:40;4.50;99.90
25128;DHT22;13107;51.304;6.866;2023-04-15T01:03:42;4.60;99.90
25128;DHT22;13107;51.304;6.866;2023-04-15T01:07:43;4.60;99.90
25128;DHT22;13107;51.304;6.866;2023-04-15T01:11:45;4.70;99.90
25128;DHT22;13107;51.304;6.866;2023-04-15T01:15:47;4.60;99.90
25128;DHT22;13107;51.304;6.866;2023-04-15T01:19:50;4.60;99.90
25128;DHT22;13107;51.304;6.866;2023-04-15T01:23:54;4.50;99.90
25128;DHT22;13107;51.304;6.866;2023-04-15T01:27:57;4.40;99.90
25128;DHT22;13107;51.304;6.866;2023-04-15T01:31:59;4.30;99.90
25128;DHT22;13107;51.304;6.866;2023-04-15T01:36:02;4.10;99.90
25128;DHT22;13107;51.304;6.866;2023-04-15T01:40:04;4.00;99.90
25128;DHT22;13107;51.304;6.866;2023-04-15T01:44:06;4.00;99.90
25128;DHT22;13107;51.304;6.866;2023-04-15T01:48:08;4.00;99.90
25128;DHT22;13107;51.304;6.866;2023-04-15T01:52:10;4.00;99.90
25128;DHT22;13107;51.304;6.866;2023-04-15T01:56:11;3.90;99.90
25128;DHT22;13107;51.304;6.866;2023-04-15T02:00:17;3.90;99.90
25128;DHT22;13107;51.304;6.866;2023-04-15T02:04:18;3.80;99.90
25128;DHT22;13107;51.304;6.866;2023-04-15T02:08:20;3.80;99.90
25128;DHT22;13107;51.304;6.866;2023-04-15T02:12:22;3.70;99.90
25128;DHT22;13107;51.304;6.866;2023-04-15T02:16:23;3.60;99.90
25128;DHT22;13107;51.304;6.866;2023-04-15T02:20:25;3.60;99.90
25128;DHT22;13107;51.304;6.866;2023-04-15T02:24:28;3.60;99.90
25128;DHT22;13107;51.304;6.866;2023-04-15T02:28:30;3.50;99.90
25128;DHT22;13107;51.304;6.866;2023-04-15T02:32:32;3.50;99.90
25128;DHT22;13107;51.304;6.866;2023-04-15T02:36:33;3.50;99.90
25128;DHT22;13107;51.304;6.866;2023-04-15T02:40:35;3.40;99.90
25128;DHT22;13107;51.304;6.866;2023-04-15T02:44:37;3.40;99.90
25128;DHT22;13107;51.304;6.866;2023-04-15T02:48:39;3.40;99.90
25128;DHT22;13107;51.304;6.866;2023-04-15T02:52:41;3.20;99.90
25128;DHT22;13107;51.304;6.866;2023-04-15T02:56:43;3.20;99.90
25128;DHT22;13107;51.304;6.866;2023-04-15T03:00:45;3.20;99.90
25128;DHT22;13107;51.304;6.866;2023-04-15T03:04:47;3.20;99.90
25128;DHT22;13107;51.304;6.866;2023-04-15T03:08:49;3.30;99.90
25128;DHT22;13107;51.304;6.866;2023-04-15T03:12:51;3.10;99.90
25128;DHT22;13107;51.304;6.866;2023-04-15T03:16:52;3.10;99.90
25128;DHT22;13107;51.304;6.866;2023-04-15T03:20:54;3.10;99.90
25128;DHT22;13107;51.304;6.866;2023-04-15T03:24:56;3.10;99.90
25128;DHT22;13107;51.304;6.866;2023-04-15T03:28:57;3.00;99.90
25128;DHT22;13107;51.304;6.866;2023-04-15T03:33:00;3.10;99.90
25128;DHT22;13107;51.304;6.866;2023-04-15T03:37:01;3.10;99.90
25128;DHT22;13107;51.304;6.866;2023-04-15T03:41:03;3.00;99.90
25128;DHT22;13107;51.304;6.866;2023-04-15T03:45:06;3.00;99.90
25128;DHT22;13107;51.304;6.866;2023-04-15T03:49:08;2.90;99.90
25128;DHT22;13107;51.304;6.866;2023-04-15T03:53:09;2.90;99.90
25128;DHT22;13107;51.304;6.866;2023-04-15T03:57:11;2.90;99.90
25128;DHT22;13107;51.304;6.866;2023-04-15T04:01:13;2.90;99.90
25128;DHT22;13107;51.304;6.866;2023-04-15T04:05:14;2.90;99.90
25128;DHT22;13107;51.304;6.866;2023-04-15T04:09:16;3.40;99.90
25128;DHT22;13107;51.304;6.866;2023-04-15T04:13:18;4.00;99.90
25128;DHT22;13107;51.304;6.866;2023-04-15T04:17:19;4.30;99.90
25128;DHT22;13107;51.304;6.866;2023-04-15T04:21:21;4.60;99.90
25128;DHT22;13107;51.304;6.866;2023-04-15T04:25:23;4.90;99.90
25128;DHT22;13107;51.304;6.866;2023-04-15T04:29:25;5.10;99.90
25128;DHT22;13107;51.304;6.866;2023-04-15T04:33:27;5.10;99.90
25128;DHT22;13107;51.304;6.866;2023-04-15T04:37:29;5.00;99.90
25128;DHT22;13107;51.304;6.866;2023-04-15T04:41:30;4.50;99.90
25128;DHT22;13107;51.304;6.866;2023-04-15T04:45:32;4.20;99.90
25128;DHT22;13107;51.304;6.866;2023-04-15T04:49:34;4.30;99.90
25128;DHT22;13107;51.304;6.866;2023-04-15T04:53:36;4.20;99.90
25128;DHT22;13107;51.304;6.866;2023-04-15T04:57:38;4.10;99.90
25128;DHT22;13107;51.304;6.866;2023-04-15T05:01:40;4.20;99.90
25128;DHT22;13107;51.304;6.866;2023-04-15T05:05:42;4.40;99.90
25128;DHT22;13107;51.304;6.866;2023-04-15T05:09:44;4.70;99.90
25128;DHT22;13107;51.304;6.866;2023-04-15T05:13:46;4.80;99.90
25128;DHT22;13107;51.304;6.866;2023-04-15T05:17:47;4.90;99.90
25128;DHT22;13107;51.304;6.866;2023-04-15T05:21:49;5.00;99.90
25128;DHT22;13107;51.304;6.866;2023-04-15T05:25:51;5.10;99.90
25128;DHT22;13107;51.304;6.866;2023-04-15T05:29:53;5.20;99.90
25128;DHT22;13107;51.304;6.866;2023-04-15T05:33:54;5.10;99.90
25128;DHT22;13107;51.304;6.866;2023-04-15T05:37:56;5.20;99.90
25128;DHT22;13107;51.304;6.866;2023-04-15T05:41:58;5.20;99.90
25128;DHT22;13107;51.304;6.866;2023-04-15T05:46:00;5.40;99.90
25128;DHT22;13107;51.304;6.866;2023-04-15T05:50:02;5.50;99.90
25128;DHT22;13107;51.304;6.866;2023-04-15T05:54:04;5.70;99.90
25128;DHT22;13107;51.304;6.866;2023-04-15T05:58:06;5.80;99.90
25128;DHT22;13107;51.304;6.866;2023-04-15T06:02:09;6.00;99.90
25128;DHT22;13107;51.304;6.866;2023-04-15T06:06:11;6.20;99.90
25128;DHT22;13107;51.304;6.866;2023-04-15T06:10:12;6.40;99.90
25128;DHT22;13107;51.304;6.866;2023-04-15T06:14:14;6.70;99.90
25128;DHT22;13107;51.304;6.866;2023-04-15T06:18:16;6.70;99.90
25128;DHT22;13107;51.304;6.866;2023-04-15T06:22:17;6.80;99.90
25128;DHT22;13107;51.304;6.866;2023-04-15T06:26:19;7.00;99.90
25128;DHT22;13107;51.304;6.866;2023-04-15T06:30:21;7.10;99.90
25128;DHT22;13107;51.304;6.866;2023-04-15T06:34:25;7.10;99.90
25128;DHT22;13107;51.304;6.866;2023-04-15T06:38:26;7.40;99.90
25128;DHT22;13107;51.304;6.866;2023-04-15T06:42:28;7.60;99.90
25128;DHT22;13107;51.304;6.866;2023-04-15T06:46:30;7.80;99.90
25128;DHT22;13107;51.304;6.866;2023-04-15T06:50:32;8.10;99.90
25128;DHT22;13107;51.304;6.866;2023-04-15T06:54:34;8.30;99.90
25128;DHT22;13107;51.304;6.866;2023-04-15T06:58:36;8.60;99.90
25128;DHT22;13107;51.304;6.866;2023-04-15T07:02:37;8.80;99.90
25128;DHT22;13107;51.304;6.866;2023-04-15T07:06:39;9.10;99.90
25128;DHT22;13107;51.304;6.866;2023-04-15T07:10:42;9.20;99.90
25128;DHT22;13107;51.304;6.866;2023-04-15T07:14:44;9.20;99.90
25128;DHT22;13107;51.304;6.866;2023-04-15T07:18:45;9.30;99.90
25128;DHT22;13107;51.304;6.866;2023-04-15T07:22:47;9.50;99.90
25128;DHT22;13107;51.304;6.866;2023-04-15T07:26:49;9.40;99.90
25128;DHT22;13107;51.304;6.866;2023-04-15T07:30:51;9.50;99.90
25128;DHT22;13107;51.304;6.866;2023-04-15T07:34:52;9.70;99.90
25128;DHT22;13107;51.304;6.866;2023-04-15T07:38:54;10.00;99.90
25128;DHT22;13107;51.304;6.866;2023-04-15T07:42:56;10.00;99.90
25128;DHT22;13107;51.304;6.866;2023-04-15T07:46:59;10.20;99.90
25128;DHT22;13107;51.304;6.866;2023-04-15T07:51:00;10.00;99.90
25128;DHT22;13107;51.304;6.866;2023-04-15T07:55:07;9.80;99.90
25128;DHT22;13107;51.304;6.866;2023-04-15T07:59:09;9.50;99.90
25128;DHT22;13107;51.304;6.866;2023-04-15T08:03:11;9.40;99.90
25128;DHT22;13107;51.304;6.866;2023-04-15T08:07:13;9.40;99.90
25128;DHT22;13107;51.304;6.866;2023-04-15T08:11:15;9.60;99.90
25128;DHT22;13107;51.304;6.866;2023-04-15T08:15:17;9.70;99.90
25128;DHT22;13107;51.304;6.866;2023-04-15T08:19:19;10.00;99.90
25128;DHT22;13107;51.304;6.866;2023-04-15T08:23:21;10.30;99.90
25128;DHT22;13107;51.304;6.866;2023-04-15T08:27:23;10.50;99.90
25128;DHT22;13107;51.304;6.866;2023-04-15T08:31:26;10.80;99.90
25128;DHT22;13107;51.304;6.866;2023-04-15T08:35:30;11.10;99.90
25128;DHT22;13107;51.304;6.866;2023-04-15T08:39:32;11.10;99.90
25128;DHT22;13107;51.304;6.866;2023-04-15T08:43:34;11.30;99.90
25128;DHT22;13107;51.304;6.866;2023-04-15T08:47:37;11.40;99.90
25128;DHT22;13107;51.304;6.866;2023-04-15T08:51:41;11.50;99.90
25128;DHT22;13107;51.304;6.866;2023-04-15T08:55:44;11.30;99.90
25128;DHT22;13107;51.304;6.866;2023-04-15T08:59:46;11.40;99.90
25128;DHT22;13107;51.304;6.866;2023-04-15T09:03:48;11.40;99.90
25128;DHT22;13107;51.304;6.866;2023-04-15T09:07:51;11.70;99.90
25128;DHT22;13107;51.304;6.866;2023-04-15T09:11:53;12.00;99.90
25128;DHT22;13107;51.304;6.866;2023-04-15T09:15:55;12.70;99.90
25128;DHT22;13107;51.304;6.866;2023-04-15T09:20:08;13.30;99.90
25128;DHT22;13107;51.304;6.866;2023-04-15T09:24:10;12.50;99.90
25128;DHT22;13107;51.304;6.866;2023-04-15T09:28:11;13.00;99.90
25128;DHT22;13107;51.304;6.866;2023-04-15T09:32:14;13.40;99.90
25128;DHT22;13107;51.304;6.866;2023-04-15T09:36:16;13.60;99.90
25128;DHT22;13107;51.304;6.866;2023-04-15T09:44:36;13.40;99.90
25128;DHT22;13107;51.304;6.866;2023-04-15T09:48:38;13.30;99.90
25128;DHT22;13107;51.304;6.866;2023-04-15T09:52:43;13.60;99.90
25128;DHT22;13107;51.304;6.866;2023-04-15T09:56:45;14.00;99.90
25128;DHT22;13107;51.304;6.866;2023-04-15T10:00:48;14.60;99.90
25128;DHT22;13107;51.304;6.866;2023-04-15T10:04:51;13.80;99.90
25128;DHT22;13107;51.304;6.866;2023-04-15T10:08:54;14.40;99.90
25128;DHT22;13107;51.304;6.866;2023-04-15T10:12:57;15.10;99.90
25128;DHT22;13107;51.304;6.866;2023-04-15T10:17:01;14.20;99.90
25128;DHT22;13107;51.304;6.866;2023-04-15T10:21:04;13.40;99.90
25128;DHT22;13107;51.304;6.866;2023-04-15T10:25:08;13.50;99.90
25128;DHT22;13107;51.304;6.866;2023-04-15T10:29:10;13.10;99.90
25128;DHT22;13107;51.304;6.866;2023-04-15T10:33:12;12.70;99.90
25128;DHT22;13107;51.304;6.866;2023-04-15T10:37:20;12.40;99.90
25128;DHT22;13107;51.304;6.866;2023-04-15T10:41:25;12.10;99.90
25128;DHT22;13107;51.304;6.866;2023-04-15T10:45:35;12.40;99.90
25128;DHT22;13107;51.304;6.866;2023-04-15T10:49:48;12.40;99.90
25128;DHT22;13107;51.304;6.866;2023-04-15T10:53:55;12.40;99.90
25128;DHT22;13107;51.304;6.866;2023-04-15T10:58:00;12.30;99.90
25128;DHT22;13107;51.304;6.866;2023-04-15T11:02:04;11.90;99.90
25128;DHT22;13107;51.304;6.866;2023-04-15T11:06:06;11.80;99.90
25128;DHT22;13107;51.304;6.866;2023-04-15T11:14:19;12.10;99.90
25128;DHT22;13107;51.304;6.866;2023-04-15T11:18:26;12.20;99.90
25128;DHT22;13107;51.304;6.866;2023-04-15T11:22:29;12.70;99.90
25128;DHT22;13107;51.304;6.866;2023-04-15T11:26:30;13.20;99.90
25128;DHT22;13107;51.304;6.866;2023-04-15T11:30:34;13.20;99.90
25128;DHT22;13107;51.304;6.866;2023-04-15T11:34:37;12.90;99.90
25128;DHT22;13107;51.304;6.866;2023-04-15T11:38:43;12.50;99.90
25128;DHT22;13107;51.304;6.866;2023-04-15T11:42:45;12.10;99.90
25128;DHT22;13107;51.304;6.866;2023-04-15T11:46:50;11.80;99.90
25128;DHT22;13107;51.304;6.866;2023-04-15T11:50:57;11.90;99.90
25128;DHT22;13107;51.304;6.866;2023-04-15T11:55:02;12.10;99.90
25128;DHT22;13107;51.304;6.866;2023-04-15T11:59:04;12.10;99.90
25128;DHT22;13107;51.304;6.866;2023-04-15T12:03:24;11.90;99.90
25128;DHT22;13107;51.304;6.866;2023-04-15T12:07:27;11.70;99.90
25128;DHT22;13107;51.304;6.866;2023-04-15T12:11:39;11.70;99.90
25128;DHT22;13107;51.304;6.866;2023-04-15T12:15:41;11.80;99.90
25128;DHT22;13107;51.304;6.866;2023-04-15T12:19:42;11.40;99.90
25128;DHT22;13107;51.304;6.866;2023-04-15T12:27:51;11.10;99.90
25128;DHT22;13107;51.304;6.866;2023-04-15T12:32:29;11.10;99.90
25128;DHT22;13107;51.304;6.866;2023-04-15T12:36:35;11.00;99.90
25128;DHT22;13107;51.304;6.866;2023-04-15T12:40:37;10.90;99.90
25128;DHT22;13107;51.304;6.866;2023-04-15T12:44:39;10.90;99.90
25128;DHT22;13107;51.304;6.866;2023-04-15T12:48:41;10.80;99.90
25128;DHT22;13107;51.304;6.866;2023-04-15T12:52:43;10.70;99.90
25128;DHT22;13107;51.304;6.866;2023-04-15T12:56:46;10.80;99.90
25128;DHT22;13107;51.304;6.866;2023-04-15T13:00:48;10.80;99.90
25128;DHT22;13107;51.304;6.866;2023-04-15T13:04:50;10.80;99.90
25128;DHT22;13107;51.304;6.866;2023-04-15T13:08:52;11.00;99.90
25128;DHT22;13107;51.304;6.866;2023-04-15T13:12:59;11.00;99.90
25128;DHT22;13107;51.304;6.866;2023-04-15T13:17:01;11.10;99.90
25128;DHT22;13107;51.304;6.866;2023-04-15T13:21:04;11.10;99.90
25128;DHT22;13107;51.304;6.866;2023-04-15T13:25:08;11.10;99.90
25128;DHT22;13107;51.304;6.866;2023-04-15T13:29:10;11.40;99.90
25128;DHT22;13107;51.304;6.866;2023-04-15T13:33:12;11.30;99.90
25128;DHT22;13107;51.304;6.866;2023-04-15T13:37:14;11.30;99.90
25128;DHT22;13107;51.304;6.866;2023-04-15T13:41:16;11.10;99.90
25128;DHT22;13107;51.304;6.866;2023-04-15T13:45:18;11.10;99.90
25128;DHT22;13107;51.304;6.866;2023-04-15T13:49:19;11.00;99.90
25128;DHT22;13107;51.304;6.866;2023-04-15T13:53:21;11.10;99.90
25128;DHT22;13107;51.304;6.866;2023-04-15T13:57:39;10.80;99.90
25128;DHT22;13107;51.304;6.866;2023-04-15T14:01:41;10.90;99.90
25128;DHT22;13107;51.304;6.866;2023-04-15T14:05:44;11.10;99.90
25128;DHT22;13107;51.304;6.866;2023-04-15T14:09:46;11.20;99.90
25128;DHT22;13107;51.304;6.866;2023-04-15T14:13:48;11.20;99.90
25128;DHT22;13107;51.304;6.866;2023-04-15T14:17:50;11.20;99.90
25128;DHT22;13107;51.304;6.866;2023-04-15T14:21:52;11.00;99.90
25128;DHT22;13107;51.304;6.866;2023-04-15T14:25:53;10.90;99.90
25128;DHT22;13107;51.304;6.866;2023-04-15T14:29:55;10.80;99.90
25128;DHT22;13107;51.304;6.866;2023-04-15T14:33:58;10.80;99.90
25128;DHT22;13107;51.304;6.866;2023-04-15T14:37:59;10.80;99.90
25128;DHT22;13107;51.304;6.866;2023-04-15T14:42:01;10.80;99.90
25128;DHT22;13107;51.304;6.866;2023-04-15T14:46:03;10.80;99.90
25128;DHT22;13107;51.304;6.866;2023-04-15T14:50:05;10.60;99.90
25128;DHT22;13107;51.304;6.866;2023-04-15T14:54:07;10.50;99.90
25128;DHT22;13107;51.304;6.866;2023-04-15T14:58:08;10.50;99.90
25128;DHT22;13107;51.304;6.866;2023-04-15T15:02:10;10.60;99.90
25128;DHT22;13107;51.304;6.866;2023-04-15T15:06:19;10.70;99.90
25128;DHT22;13107;51.304;6.866;2023-04-15T15:10:22;10.90;99.90
25128;DHT22;13107;51.304;6.866;2023-04-15T15:14:43;10.60;99.90
25128;DHT22;13107;51.304;6.866;2023-04-15T15:18:45;10.60;99.90
25128;DHT22;13107;51.304;6.866;2023-04-15T15:22:47;10.40;99.90
25128;DHT22;13107;51.304;6.866;2023-04-15T15:26:49;10.30;99.90
25128;DHT22;13107;51.304;6.866;2023-04-15T15:30:50;10.10;99.90
25128;DHT22;13107;51.304;6.866;2023-04-15T15:34:52;10.10;99.90
25128;DHT22;13107;51.304;6.866;2023-04-15T15:38:54;9.90;99.90
25128;DHT22;13107;51.304;6.866;2023-04-15T15:42:55;10.00;99.90
25128;DHT22;13107;51.304;6.866;2023-04-15T15:46:57;10.00;99.90
25128;DHT22;13107;51.304;6.866;2023-04-15T15:51:00;10.20;99.90
25128;DHT22;13107;51.304;6.866;2023-04-15T15:55:01;10.00;99.90
25128;DHT22;13107;51.304;6.866;2023-04-15T15:59:03;10.10;99.90
25128;DHT22;13107;51.304;6.866;2023-04-15T16:03:05;10.10;99.90
25128;DHT22;13107;51.304;6.866;2023-04-15T16:07:09;10.20;99.90
25128;DHT22;13107;51.304;6.866;2023-04-15T16:11:11;10.20;99.90
25128;DHT22;13107;51.304;6.866;2023-04-15T16:15:13;10.30;99.90
25128;DHT22;13107;51.304;6.866;2023-04-15T16:19:15;10.20;99.90
25128;DHT22;13107;51.304;6.866;2023-04-15T16:23:17;10.00;99.90
25128;DHT22;13107;51.304;6.866;2023-04-15T16:27:20;10.00;99.90
25128;DHT22;13107;51.304;6.866;2023-04-15T16:31:21;9.90;99.90
25128;DHT22;13107;51.304;6.866;2023-04-15T16:35:23;9.80;99.90
25128;DHT22;13107;51.304;6.866;2023-04-15T16:39:25;9.70;99.90
25128;DHT22;13107;51.304;6.866;2023-04-15T16:43:27;9.60;99.90
25128;DHT22;13107;51.304;6.866;2023-04-15T16:47:29;9.60;99.90
25128;DHT22;13107;51.304;6.866;2023-04-15T16:51:31;9.40;99.90
25128;DHT22;13107;51.304;6.866;2023-04-15T16:55:33;9.50;99.90
25128;DHT22;13107;51.304;6.866;2023-04-15T16:59:34;9.50;99.90
25128;DHT22;13107;51.304;6.866;2023-04-15T17:03:36;9.40;99.90
25128;DHT22;13107;51.304;6.866;2023-04-15T17:07:39;9.30;99.90
25128;DHT22;13107;51.304;6.866;2023-04-15T17:11:40;9.30;99.90
25128;DHT22;13107;51.304;6.866;2023-04-15T17:15:44;9.40;99.90
25128;DHT22;13107;51.304;6.866;2023-04-15T17:19:46;9.40;99.90
25128;DHT22;13107;51.304;6.866;2023-04-15T17:23:49;9.30;99.90
25128;DHT22;13107;51.304;6.866;2023-04-15T17:27:51;9.30;99.90
25128;DHT22;13107;51.304;6.866;2023-04-15T17:31:54;9.10;99.90
25128;DHT22;13107;51.304;6.866;2023-04-15T17:35:56;9.20;99.90
25128;DHT22;13107;51.304;6.866;2023-04-15T17:39:58;9.10;99.90
25128;DHT22;13107;51.304;6.866;2023-04-15T17:44:00;9.10;99.90
25128;DHT22;13107;51.304;6.866;2023-04-15T17:48:01;9.00;99.90
25128;DHT22;13107;51.304;6.866;2023-04-15T17:52:04;8.90;99.90
25128;DHT22;13107;51.304;6.866;2023-04-15T17:56:06;8.80;99.90
25128;DHT22;13107;51.304;6.866;2023-04-15T18:00:08;8.80;99.90
25128;DHT22;13107;51.304;6.866;2023-04-15T18:04:11;8.70;99.90
25128;DHT22;13107;51.304;6.866;2023-04-15T18:08:13;8.70;99.90
25128;DHT22;13107;51.304;6.866;2023-04-15T18:12:15;8.80;99.90
25128;DHT22;13107;51.304;6.866;2023-04-15T18:16:17;8.60;99.90
25128;DHT22;13107;51.304;6.866;2023-04-15T18:20:19;8.60;99.90
25128;DHT22;13107;51.304;6.866;2023-04-15T18:24:21;8.50;99.90
25128;DHT22;13107;51.304;6.866;2023-04-15T18:28:23;8.40;99.90
25128;DHT22;13107;51.304;6.866;2023-04-15T18:32:25;8.30;99.90
25128;DHT22;13107;51.304;6.866;2023-04-15T18:36:32;8.30;99.90
25128;DHT22;13107;51.304;6.866;2023-04-15T18:40:34;8.30;99.90
25128;DHT22;13107;51.304;6.866;2023-04-15T18:44:36;8.20;99.90
25128;DHT22;13107;51.304;6.866;2023-04-15T18:48:38;8.30;99.90
25128;DHT22;13107;51.304;6.866;2023-04-15T18:52:40;8.20;99.90
25128;DHT22;13107;51.304;6.866;2023-04-15T18:56:41;8.20;99.90
25128;DHT22;13107;51.304;6.866;2023-04-15T19:00:43;8.30;99.90
25128;DHT22;13107;51.304;6.866;2023-04-15T19:04:45;8.20;99.90
25128;DHT22;13107;51.304;6.866;2023-04-15T19:08:46;8.20;99.90
25128;DHT22;13107;51.304;6.866;2023-04-15T19:12:48;8.20;99.90
25128;DHT22;13107;51.304;6.866;2023-04-15T19:16:50;8.10;99.90
25128;DHT22;13107;51.304;6.866;2023-04-15T19:20:52;8.00;99.90
25128;DHT22;13107;51.304;6.866;2023-04-15T19:24:56;7.90;99.90
25128;DHT22;13107;51.304;6.866;2023-04-15T19:28:58;8.00;99.90
25128;DHT22;13107;51.304;6.866;2023-04-15T19:32:59;8.00;99.90
25128;DHT22;13107;51.304;6.866;2023-04-15T19:37:01;8.00;99.90
25128;DHT22;13107;51.304;6.866;2023-04-15T19:41:03;8.00;99.90
25128;DHT22;13107;51.304;6.866;2023-04-15T19:45:05;7.90;99.90
25128;DHT22;13107;51.304;6.866;2023-04-15T19:49:07;7.90;99.90
25128;DHT22;13107;51.304;6.866;2023-04-15T19:53:08;8.00;99.90
25128;DHT22;13107;51.304;6.866;2023-04-15T19:57:10;8.00;99.90
25128;DHT22;13107;51.304;6.866;2023-04-15T20:01:12;8.00;99.90
25128;DHT22;13107;51.304;6.866;2023-04-15T20:05:14;7.90;99.90
25128;DHT22;13107;51.304;6.866;2023-04-15T20:09:16;7.70;99.90
25128;DHT22;13107;51.304;6.866;2023-04-15T20:13:17;7.80;99.90
25128;DHT22;13107;51.304;6.866;2023-04-15T20:17:19;7.80;99.90
25128;DHT22;13107;51.304;6.866;2023-04-15T20:21:21;7.70;99.90
25128;DHT22;13107;51.304;6.866;2023-04-15T20:25:22;7.70;99.90
25128;DHT22;13107;51.304;6.866;2023-04-15T20:29:24;7.60;99.90
25128;DHT22;13107;51.304;6.866;2023-04-15T20:33:26;7.70;99.90
25128;DHT22;13107;51.304;6.866;2023-04-15T20:37:29;7.60;99.90
25128;DHT22;13107;51.304;6.866;2023-04-15T20:41:31;7.80;99.90
25128;DHT22;13107;51.304;6.866;2023-04-15T20:45:32;7.70;99.90
25128;DHT22;13107;51.304;6.866;2023-04-15T20:49:36;7.80;99.90
25128;DHT22;13107;51.304;6.866;2023-04-15T20:53:38;7.80;99.90
25128;DHT22;13107;51.304;6.866;2023-04-15T20:57:42;7.70;99.90
25128;DHT22;13107;51.304;6.866;2023-04-15T21:01:44;7.70;99.90
25128;DHT22;13107;51.304;6.866;2023-04-15T21:05:46;7.70;99.90
25128;DHT22;13107;51.304;6.866;2023-04-15T21:09:48;7.80;99.90
25128;DHT22;13107;51.304;6.866;2023-04-15T21:13:49;7.80;99.90
25128;DHT22;13107;51.304;6.866;2023-04-15T21:17:52;7.80;99.90
25128;DHT22;13107;51.304;6.866;2023-04-15T21:21:53;7.70;99.90
25128;DHT22;13107;51.304;6.866;2023-04-15T21:25:56;7.80;99.90
25128;DHT22;13107;51.304;6.866;2023-04-15T21:30:07;7.90;99.90
25128;DHT22;13107;51.304;6.866;2023-04-15T21:34:09;7.80;99.90
25128;DHT22;13107;51.304;6.866;2023-04-15T21:38:11;7.80;99.90
25128;DHT22;13107;51.304;6.866;2023-04-15T21:42:12;7.80;99.90
25128;DHT22;13107;51.304;6.866;2023-04-15T21:46:14;7.80;99.90
25128;DHT22;13107;51.304;6.866;2023-04-15T21:50:25;7.90;99.90
25128;DHT22;13107;51.304;6.866;2023-04-15T21:54:28;7.80;99.90
25128;DHT22;13107;51.304;6.866;2023-04-15T21:58:31;7.90;99.90
25128;DHT22;13107;51.304;6.866;2023-04-15T22:02:33;7.90;99.90
25128;DHT22;13107;51.304;6.866;2023-04-15T22:06:35;7.90;99.90
25128;DHT22;13107;51.304;6.866;2023-04-15T22:10:37;7.80;99.90
25128;DHT22;13107;51.304;6.866;2023-04-15T22:14:39;7.80;99.90
25128;DHT22;13107;51.304;6.866;2023-04-15T22:18:41;7.90;99.90
25128;DHT22;13107;51.304;6.866;2023-04-15T22:22:42;7.90;99.90
25128;DHT22;13107;51.304;6.866;2023-04-15T22:26:45;7.80;99.90
25128;DHT22;13107;51.304;6.866;2023-04-15T22:30:47;7.80;99.90
25128;DHT22;13107;51.304;6.866;2023-04-15T22:34:49;7.80;99.90
25128;DHT22;13107;51.304;6.866;2023-04-15T22:38:50;7.80;99.90
25128;DHT22;13107;51.304;6.866;2023-04-15T22:42:52;7.80;99.90
25128;DHT22;13107;51.304;6.866;2023-04-15T22:46:54;7.80;99.90
25128;DHT22;13107;51.304;6.866;2023-04-15T22:50:55;7.90;99.90
25128;DHT22;13107;51.304;6.866;2023-04-15T22:54:57;7.90;99.90
25128;DHT22;13107;51.304;6.866;2023-04-15T22:58:59;7.90;99.90
25128;DHT22;13107;51.304;6.866;2023-04-15T23:03:01;7.90;99.90
25128;DHT22;13107;51.304;6.866;2023-04-15T23:07:03;8.00;99.90
25128;DHT22;13107;51.304;6.866;2023-04-15T23:11:06;8.00;99.90
25128;DHT22;13107;51.304;6.866;2023-04-15T23:15:08;8.10;99.90
25128;DHT22;13107;51.304;6.866;2023-04-15T23:19:10;8.10;99.90
25128;DHT22;13107;51.304;6.866;2023-04-15T23:23:12;8.10;99.90
25128;DHT22;13107;51.304;6.866;2023-04-15T23:27:13;8.00;99.90
25128;DHT22;13107;51.304;6.866;2023-04-15T23:31:15;8.10;99.90
25128;DHT22;13107;51.304;6.866;2023-04-15T23:35:17;8.10;99.90
25128;DHT22;13107;51.304;6.866;2023-04-15T23:39:19;8.00;99.90
25128;DHT22;13107;51.304;6.866;2023-04-15T23:43:21;8.10;99.90
25128;DHT22;13107;51.304;6.866;2023-04-15T23:47:22;8.00;99.90
25128;DHT22;13107;51.304;6.866;2023-04-15T23:51:24;8.00;99.90
25128;DHT22;13107;51.304;6.866;2023-04-15T23:55:26;8.10;99.90
25128;DHT22;13107;51.304;6.866;2023-04-15T23:59:28;8.10;99.90
